Time;durP1;ratioP1;P1;durP2;ratioP2;P2;SDS_P1;SDS_P2;PMS_P1;PMS_P2;Temp;Humidity;BMP_temperature;BMP_pressure;BME280_temperature;BME280_humidity;BME280_pressure;Samples;Min_cycle;Max_cycle;Signal;HPM_P1;HPM_P2
2022/06/10 00:01:16;;;;;;;5.03;3.92;;;11.80;99.90;;;;;;5004607;28;20109;-77
2022/06/10 00:03:42;;;;;;;4.95;4.15;;;11.80;99.90;;;;;;5017121;28;20479;-77
2022/06/10 00:06:10;;;;;;;5.03;4.53;;;11.90;99.90;;;;;;5017326;28;20029;-79
2022/06/10 00:08:38;;;;;;;5.40;4.53;;;11.60;99.90;;;;;;5030571;28;20037;-77
2022/06/10 00:11:06;;;;;;;4.50;4.10;;;11.60;99.90;;;;;;5005957;28;20025;-77
2022/06/10 00:13:34;;;;;;;5.95;5.20;;;11.20;99.90;;;;;;5023237;28;20018;-79
2022/06/10 00:16:00;;;;;;;8.30;5.68;;;10.90;99.90;;;;;;5019672;28;20147;-80
2022/06/10 00:18:29;;;;;;;5.93;4.43;;;10.50;99.90;;;;;;5025004;28;20036;-79
2022/06/10 00:20:56;;;;;;;5.57;4.70;;;10.90;99.90;;;;;;5007298;28;20021;-80
2022/06/10 00:23:21;;;;;;;7.57;5.10;;;10.80;99.90;;;;;;5037724;28;20087;-79
2022/06/10 00:25:47;;;;;;;5.00;4.53;;;11.20;99.90;;;;;;5018689;28;20392;-79
2022/06/10 00:28:13;;;;;;;5.35;4.72;;;11.30;99.90;;;;;;5011015;28;20026;-77
2022/06/10 00:30:39;;;;;;;5.70;4.60;;;11.30;99.90;;;;;;5003314;28;20034;-78
2022/06/10 00:33:06;;;;;;;6.18;4.82;;;11.30;99.90;;;;;;5002443;28;20036;-77
2022/06/10 00:35:32;;;;;;;5.93;4.40;;;11.40;99.90;;;;;;5025612;28;20072;-77
2022/06/10 00:37:58;;;;;;;4.57;4.18;;;11.40;99.90;;;;;;5027730;28;20545;-77
2022/06/10 00:40:32;;;;;;;5.25;4.75;;;11.40;99.90;;;;;;5024366;28;20029;-77
2022/06/10 00:42:57;;;;;;;4.78;4.10;;;11.40;99.90;;;;;;5028679;28;20026;-77
2022/06/10 00:46:00;;;;;;;5.70;4.45;;;11.40;99.90;;;;;;5024959;28;20071;-77
2022/06/10 00:48:42;;;;;;;4.68;4.25;;;11.40;99.90;;;;;;5009196;28;20483;-79
2022/06/10 00:51:37;;;;;;;4.45;4.00;;;11.30;99.90;;;;;;5051002;28;20045;-78
2022/06/10 00:54:40;;;;;;;4.55;3.75;;;11.50;99.90;;;;;;5033755;28;20026;-79
2022/06/10 00:57:16;;;;;;;4.32;3.92;;;11.60;99.90;;;;;;4951079;29;20027;-77
2022/06/10 00:59:50;;;;;;;5.35;3.80;;;11.60;99.90;;;;;;5038539;28;20037;-78
2022/06/10 01:02:20;;;;;;;4.97;4.10;;;11.60;99.90;;;;;;5037033;28;20030;-76
2022/06/10 01:04:46;;;;;;;4.20;3.80;;;11.50;99.90;;;;;;5041480;28;20029;-78
2022/06/10 01:07:16;;;;;;;4.35;3.95;;;11.60;99.90;;;;;;5023980;28;20029;-79
2022/06/10 01:09:43;;;;;;;5.70;4.10;;;11.60;99.90;;;;;;5045317;28;20088;-78
2022/06/10 01:12:30;;;;;;;6.13;4.55;;;12.00;99.90;;;;;;5044739;28;20372;-79
2022/06/10 01:15:17;;;;;;;6.07;4.70;;;11.70;99.90;;;;;;5007065;28;20389;-76
2022/06/10 01:18:01;;;;;;;5.43;4.93;;;11.30;99.90;;;;;;5008309;28;20096;-76
2022/06/10 01:20:36;;;;;;;6.28;5.55;;;10.70;99.90;;;;;;5019540;28;20103;-76
2022/06/10 01:23:19;;;;;;;7.57;5.57;;;10.70;99.90;;;;;;5022874;28;20100;-77
2022/06/10 01:26:12;;;;;;;6.00;5.40;;;10.90;99.90;;;;;;5019241;28;20072;-77
2022/06/10 01:29:22;;;;;;;5.72;4.68;;;10.90;99.90;;;;;;5011538;28;20080;-78
2022/06/10 01:31:56;;;;;;;4.82;4.32;;;11.00;99.90;;;;;;5024697;28;20108;-78
2022/06/10 01:34:38;;;;;;;5.70;4.85;;;11.10;99.90;;;;;;5022560;28;20032;-78
2022/06/10 01:37:19;;;;;;;5.32;4.80;;;11.00;99.90;;;;;;5008403;28;20022;-78
2022/06/10 01:40:04;;;;;;;5.18;4.35;;;11.00;99.90;;;;;;4995838;28;20084;-78
2022/06/10 01:42:45;;;;;;;5.10;4.53;;;11.10;99.90;;;;;;5006634;28;20017;-77
2022/06/10 01:45:13;;;;;;;5.15;3.97;;;11.20;99.90;;;;;;5008150;28;20026;-77
2022/06/10 01:47:48;;;;;;;5.55;4.60;;;11.20;99.90;;;;;;5007407;28;20029;-77
2022/06/10 01:50:34;;;;;;;6.38;4.80;;;11.30;99.90;;;;;;4991525;28;20022;-78
2022/06/10 01:53:18;;;;;;;4.83;4.37;;;11.10;99.90;;;;;;5021146;28;20041;-78
2022/06/10 01:55:51;;;;;;;6.40;4.85;;;11.20;99.90;;;;;;5007775;28;20323;-79
2022/06/10 01:58:44;;;;;;;6.22;5.63;;;11.10;99.90;;;;;;5009957;28;20117;-79
2022/06/10 02:01:19;;;;;;;4.97;4.47;;;10.80;99.90;;;;;;5004219;28;20071;-78
2022/06/10 02:03:54;;;;;;;4.45;4.05;;;11.10;99.90;;;;;;5023387;28;20018;-79
2022/06/10 02:06:33;;;;;;;4.90;4.20;;;11.10;99.90;;;;;;5008849;28;20392;-78
2022/06/10 02:09:10;;;;;;;5.03;4.60;;;11.00;99.90;;;;;;5003145;28;20030;-78
2022/06/10 02:11:40;;;;;;;5.35;4.00;;;11.10;99.90;;;;;;5006891;28;20036;-78
2022/06/10 02:14:15;;;;;;;5.18;3.88;;;11.00;99.90;;;;;;5028171;28;20034;-76
2022/06/10 02:16:44;;;;;;;4.53;4.13;;;11.00;99.90;;;;;;5009403;28;20025;-78
2022/06/10 02:19:18;;;;;;;4.57;4.18;;;11.30;99.90;;;;;;5004512;28;20044;-78
2022/06/10 02:21:48;;;;;;;7.45;5.35;;;11.30;99.90;;;;;;5004213;28;20079;-78
2022/06/10 02:24:18;;;;;;;5.05;4.55;;;10.80;99.90;;;;;;5009570;28;20134;-78
2022/06/10 02:26:47;;;;;;;5.43;4.90;;;10.50;99.90;;;;;;5008724;28;20499;-77
2022/06/10 02:29:18;;;;;;;5.30;4.80;;;10.60;99.90;;;;;;5002186;28;20029;-76
2022/06/10 02:31:48;;;;;;;6.07;4.95;;;10.60;99.90;;;;;;5000114;28;20491;-76
2022/06/10 02:34:14;;;;;;;5.70;5.03;;;10.50;99.90;;;;;;5022177;28;20068;-77
2022/06/10 02:36:54;;;;;;;5.30;4.50;;;10.40;99.90;;;;;;5007393;28;20057;-77
2022/06/10 02:39:43;;;;;;;5.00;4.47;;;10.50;99.90;;;;;;5005593;28;20025;-76
2022/06/10 02:42:22;;;;;;;6.05;4.70;;;10.50;99.90;;;;;;5007629;28;20025;-76
2022/06/10 02:44:50;;;;;;;6.00;5.00;;;10.50;99.90;;;;;;5000501;28;20537;-76
2022/06/10 02:47:36;;;;;;;6.10;5.00;;;10.40;99.90;;;;;;5004631;28;20391;-76
2022/06/10 02:50:02;;;;;;;5.38;4.82;;;10.40;99.90;;;;;;5026852;28;20034;-76
2022/06/10 02:52:33;;;;;;;5.63;4.88;;;10.30;99.90;;;;;;5023729;28;20029;-76
2022/06/10 02:54:59;;;;;;;5.32;4.80;;;10.50;99.90;;;;;;4987994;28;20029;-77
2022/06/10 03:03:30;;;;;;;4.78;4.32;;;10.60;99.90;;;;;;4995883;28;20511;-76
2022/06/10 03:06:13;;;;;;;6.00;4.63;;;10.70;99.90;;;;;;5024476;28;20056;-77
2022/06/10 03:08:51;;;;;;;7.25;4.82;;;10.30;99.90;;;;;;5010062;28;20033;-76
2022/06/10 03:11:17;;;;;;;6.15;5.28;;;10.60;99.90;;;;;;5009899;28;20026;-76
2022/06/10 03:14:11;;;;;;;7.45;5.03;;;10.70;99.90;;;;;;5021305;28;20034;-77
2022/06/10 03:17:14;;;;;;;4.95;4.47;;;10.80;99.90;;;;;;5028160;28;20391;-79
2022/06/10 03:20:07;;;;;;;5.78;5.20;;;10.80;99.90;;;;;;4990242;28;20457;-77
2022/06/10 03:22:51;;;;;;;7.43;5.40;;;10.90;99.90;;;;;;5008394;28;20108;-77
2022/06/10 03:25:55;;;;;;;5.63;5.13;;;11.00;99.90;;;;;;5021635;28;20038;-76
2022/06/10 03:28:29;;;;;;;6.43;5.68;;;11.00;99.90;;;;;;5019445;28;20076;-77
2022/06/10 03:31:01;;;;;;;5.95;4.97;;;10.80;99.90;;;;;;5005537;28;20018;-77
2022/06/10 03:33:37;;;;;;;6.13;5.43;;;10.80;99.90;;;;;;5018484;28;20026;-77
2022/06/10 03:36:11;;;;;;;;;;;10.80;99.90;;;;;;5028445;28;20024;-78
2022/06/10 03:38:43;;;;;;;7.30;5.97;;;10.40;99.90;;;;;;5001861;28;19914;-80
2022/06/10 03:41:23;;;;;;;8.38;5.90;;;10.10;99.90;;;;;;5018527;28;20029;-78
2022/06/10 03:43:51;;;;;;;6.72;5.82;;;9.80;99.90;;;;;;4997511;28;20025;-79
2022/06/10 03:46:19;;;;;;;8.73;6.70;;;10.00;99.90;;;;;;5007453;28;20056;-79
2022/06/10 03:48:46;;;;;;;6.70;6.10;;;10.40;99.90;;;;;;5016685;28;20026;-77
2022/06/10 03:51:13;;;;;;;8.02;6.78;;;10.00;99.90;;;;;;5026935;28;20038;-77
2022/06/10 03:53:39;;;;;;;7.18;6.47;;;10.00;99.90;;;;;;5022652;28;20033;-77
2022/06/10 03:56:05;;;;;;;7.20;5.38;;;10.20;99.90;;;;;;5020870;28;20026;-77
2022/06/10 03:58:31;;;;;;;6.00;5.30;;;10.30;99.90;;;;;;5024391;28;20026;-76
2022/06/10 04:00:58;;;;;;;6.95;5.40;;;10.40;99.90;;;;;;5026858;28;20025;-76
2022/06/10 04:03:24;;;;;;;6.53;5.90;;;10.50;99.90;;;;;;5014240;28;20541;-77
2022/06/10 04:05:50;;;;;;;6.25;5.65;;;10.60;99.90;;;;;;5009698;28;20093;-78
2022/06/10 04:08:15;;;;;;;5.80;5.10;;;10.30;99.90;;;;;;5004474;28;20116;-77
2022/06/10 04:10:41;;;;;;;5.95;5.28;;;10.40;99.90;;;;;;5019418;28;20506;-77
2022/06/10 04:13:07;;;;;;;6.82;5.22;;;10.70;99.90;;;;;;5025563;28;20034;-78
2022/06/10 04:15:33;;;;;;;6.18;5.20;;;10.80;99.90;;;;;;5032340;28;20022;-78
2022/06/10 04:17:59;;;;;;;8.02;5.63;;;10.80;99.90;;;;;;5024285;28;20664;-77
2022/06/10 04:20:26;;;;;;;6.05;5.00;;;11.20;99.90;;;;;;5008966;28;20056;-78
2022/06/10 04:22:52;;;;;;;6.40;5.30;;;11.00;99.90;;;;;;5005694;28;20030;-78
2022/06/10 04:25:18;;;;;;;7.05;5.22;;;10.90;99.90;;;;;;5019365;28;20472;-78
2022/06/10 04:27:44;;;;;;;5.75;5.20;;;11.20;99.90;;;;;;5024550;28;20072;-78
2022/06/10 04:30:26;;;;;;;6.35;5.57;;;11.40;99.90;;;;;;5009992;28;20026;-77
2022/06/10 04:32:53;;;;;;;6.97;5.75;;;11.30;99.90;;;;;;5008001;28;20039;-78
2022/06/10 04:35:19;;;;;;;9.57;5.43;;;11.30;99.90;;;;;;5020972;28;20488;-77
2022/06/10 04:37:45;;;;;;;7.85;5.70;;;11.40;99.90;;;;;;5004317;28;20037;-76
2022/06/10 04:40:14;;;;;;;7.00;5.50;;;11.50;99.90;;;;;;5026781;28;20403;-77
2022/06/10 04:42:40;;;;;;;6.18;5.57;;;11.70;99.90;;;;;;5025780;28;20025;-78
2022/06/10 04:45:07;;;;;;;10.18;6.15;;;11.80;99.90;;;;;;5018954;28;20032;-77
2022/06/10 04:47:32;;;;;;;6.63;5.95;;;11.80;99.90;;;;;;5020941;28;20109;-77
2022/06/10 04:49:59;;;;;;;6.93;6.22;;;11.80;99.90;;;;;;5026363;28;20164;-78
2022/06/10 04:52:27;;;;;;;8.25;7.25;;;11.90;99.90;;;;;;5012793;28;20026;-78
2022/06/10 04:54:53;;;;;;;8.05;6.50;;;12.10;99.90;;;;;;4982757;28;20026;-77
2022/06/10 04:57:19;;;;;;;6.88;6.18;;;12.00;99.90;;;;;;5009575;28;20025;-78
2022/06/10 04:59:45;;;;;;;7.32;5.70;;;12.00;99.90;;;;;;5020020;28;20501;-78
2022/06/10 05:02:10;;;;;;;7.25;6.47;;;12.00;99.90;;;;;;5018932;28;20068;-78
2022/06/10 05:04:36;;;;;;;8.57;7.32;;;12.20;99.90;;;;;;5008002;28;20391;-77
2022/06/10 05:07:01;;;;;;;9.02;8.13;;;12.10;99.90;;;;;;5026192;28;20109;-76
2022/06/10 05:09:27;;;;;;;6.63;5.78;;;12.20;99.90;;;;;;5020085;28;20051;-78
2022/06/10 05:11:52;;;;;;;8.05;7.22;;;12.40;99.90;;;;;;5018947;28;20034;-78
2022/06/10 05:14:18;;;;;;;9.00;7.68;;;12.90;99.90;;;;;;5024556;28;20025;-77
2022/06/10 05:16:44;;;;;;;8.48;7.68;;;12.70;99.90;;;;;;5013890;28;20112;-77
2022/06/10 05:19:09;;;;;;;8.05;7.22;;;12.80;99.90;;;;;;5008884;28;20025;-78
2022/06/10 05:21:35;;;;;;;7.47;6.40;;;12.90;99.90;;;;;;5025175;28;20018;-79
2022/06/10 05:24:00;;;;;;;9.48;6.03;;;12.90;99.90;;;;;;5020664;28;20025;-78
2022/06/10 05:26:29;;;;;;;7.38;5.93;;;13.00;99.90;;;;;;5021437;28;20089;-77
2022/06/10 05:28:57;;;;;;;7.78;6.15;;;13.00;99.90;;;;;;5026315;28;20084;-78
2022/06/10 05:31:23;;;;;;;7.85;6.65;;;12.80;99.90;;;;;;5009031;28;20033;-79
2022/06/10 05:36:32;;;;;;;9.20;6.72;;;12.90;99.90;;;;;;5030470;28;20083;-75
2022/06/10 05:38:58;;;;;;;7.07;6.18;;;13.00;99.90;;;;;;5020901;28;20029;-74
2022/06/10 05:44:09;;;;;;;8.48;7.57;;;13.30;99.90;;;;;;5023763;28;20041;-78
2022/06/10 05:46:35;;;;;;;8.27;6.60;;;13.60;99.90;;;;;;5027694;28;20071;-77
2022/06/10 05:49:01;;;;;;;8.80;7.57;;;13.60;99.90;;;;;;5025414;28;20493;-78
2022/06/10 05:51:26;;;;;;;10.27;7.13;;;13.60;99.90;;;;;;5002653;28;20120;-77
2022/06/10 05:53:52;;;;;;;11.70;8.13;;;13.80;99.90;;;;;;5022386;28;20112;-78
2022/06/10 05:56:18;;;;;;;9.05;7.00;;;13.60;99.90;;;;;;5026831;28;20025;-78
2022/06/10 05:58:43;;;;;;;9.85;7.13;;;13.40;99.90;;;;;;5024346;28;20091;-77
2022/06/10 06:01:09;;;;;;;9.05;6.85;;;13.50;99.90;;;;;;5015394;28;20029;-77
2022/06/10 06:03:34;;;;;;;9.00;6.60;;;13.70;99.90;;;;;;5020212;28;20400;-77
2022/06/10 06:06:00;;;;;;;10.80;7.18;;;14.20;99.90;;;;;;5032022;28;20025;-78
2022/06/10 06:08:26;;;;;;;8.75;6.47;;;14.10;99.90;;;;;;5023144;28;20065;-78
2022/06/10 06:10:52;;;;;;;9.05;6.00;;;14.10;99.90;;;;;;5009480;28;20056;-78
2022/06/10 06:13:17;;;;;;;9.35;5.97;;;14.20;99.90;;;;;;5014860;28;20067;-77
2022/06/10 06:15:43;;;;;;;10.65;6.40;;;14.00;99.90;;;;;;5018108;28;20026;-78
2022/06/10 06:18:10;;;;;;;9.75;6.70;;;14.50;99.90;;;;;;5021496;28;20496;-77
2022/06/10 06:20:36;;;;;;;7.13;5.82;;;14.60;99.90;;;;;;5027145;28;20022;-78
2022/06/10 06:23:01;;;;;;;8.57;5.60;;;14.90;99.90;;;;;;5025279;28;20036;-78
2022/06/10 06:25:30;;;;;;;7.78;5.70;;;15.30;99.90;;;;;;5019867;28;20033;-78
2022/06/10 06:27:56;;;;;;;7.70;5.88;;;15.40;99.90;;;;;;5005042;28;20030;-78
2022/06/10 06:30:30;;;;;;;7.60;6.05;;;15.20;99.90;;;;;;5027458;28;20034;-78
2022/06/10 06:32:56;;;;;;;6.88;6.05;;;14.90;99.90;;;;;;5016192;28;20108;-78
2022/06/10 06:35:22;;;;;;;7.95;5.72;;;15.00;99.90;;;;;;5023436;28;20035;-78
2022/06/10 06:37:47;;;;;;;8.82;5.75;;;15.20;99.90;;;;;;5026868;28;20448;-78
2022/06/10 06:40:13;;;;;;;9.02;6.22;;;15.40;99.90;;;;;;5032539;28;20062;-78
2022/06/10 06:42:39;;;;;;;7.75;6.07;;;15.50;99.90;;;;;;5028833;28;20085;-79
2022/06/10 06:45:06;;;;;;;6.78;5.55;;;15.40;99.90;;;;;;5018674;28;20030;-78
2022/06/10 06:47:32;;;;;;;5.75;5.20;;;15.30;99.90;;;;;;5028954;28;20454;-79
2022/06/10 06:49:58;;;;;;;6.88;5.32;;;15.50;99.90;;;;;;5023707;28;20084;-77
2022/06/10 06:52:23;;;;;;;6.72;5.68;;;15.80;99.90;;;;;;5025314;28;20030;-78
2022/06/10 06:54:49;;;;;;;9.48;5.28;;;15.60;99.90;;;;;;5012838;28;20061;-78
2022/06/10 06:57:14;;;;;;;6.75;5.70;;;15.70;99.90;;;;;;5027788;28;20022;-78
2022/06/10 06:59:40;;;;;;;6.18;5.18;;;16.20;99.90;;;;;;5017254;28;20053;-77
2022/06/10 07:02:06;;;;;;;5.65;4.60;;;16.10;99.90;;;;;;5026670;28;20029;-78
2022/06/10 07:04:31;;;;;;;6.00;5.28;;;16.20;99.90;;;;;;5032130;28;20040;-77
2022/06/10 07:06:57;;;;;;;6.05;5.18;;;16.20;99.90;;;;;;5034890;28;20025;-77
2022/06/10 07:09:22;;;;;;;8.02;5.63;;;16.10;99.90;;;;;;5022787;28;20036;-77
2022/06/10 07:11:48;;;;;;;6.75;5.60;;;16.30;99.90;;;;;;5025268;28;20030;-77
2022/06/10 07:14:14;;;;;;;5.60;4.95;;;16.30;99.90;;;;;;5027728;28;20464;-77
2022/06/10 07:16:41;;;;;;;7.53;5.35;;;16.60;99.90;;;;;;5028342;28;20476;-77
2022/06/10 07:19:08;;;;;;;6.60;5.00;;;16.50;99.90;;;;;;5022819;28;20044;-77
2022/06/10 07:21:34;;;;;;;5.25;4.07;;;16.80;99.90;;;;;;5022127;28;20054;-77
2022/06/10 07:24:00;;;;;;;6.22;4.20;;;17.10;99.90;;;;;;5029328;28;20076;-78
2022/06/10 07:26:26;;;;;;;5.32;4.30;;;17.30;99.90;;;;;;5028495;28;20025;-77
2022/06/10 07:28:52;;;;;;;6.95;3.65;;;17.60;99.90;;;;;;5017297;28;20036;-77
2022/06/10 07:31:17;;;;;;;6.72;4.32;;;17.60;99.90;;;;;;5010020;28;20021;-77
2022/06/10 07:33:43;;;;;;;6.70;4.55;;;17.40;99.90;;;;;;5015839;28;20129;-78
2022/06/10 07:36:10;;;;;;;5.20;3.85;;;17.60;99.90;;;;;;5027905;28;20021;-77
2022/06/10 07:38:36;;;;;;;7.68;4.50;;;17.70;99.90;;;;;;5022692;28;20120;-77
2022/06/10 07:43:50;;;;;;;7.28;4.32;;;17.10;99.90;;;;;;4994556;28;20471;-77
2022/06/10 07:46:20;;;;;;;6.03;4.07;;;17.40;99.90;;;;;;5022263;28;20026;-77
2022/06/10 07:48:46;;;;;;;6.35;4.28;;;17.50;99.90;;;;;;5025401;28;20026;-78
2022/06/10 07:51:12;;;;;;;6.93;4.35;;;17.70;99.90;;;;;;5024846;28;20498;-77
2022/06/10 07:53:41;;;;;;;5.50;3.67;;;17.70;99.90;;;;;;5025447;28;20025;-77
2022/06/10 07:56:08;;;;;;;5.97;3.72;;;17.90;99.90;;;;;;5022706;28;20029;-77
2022/06/10 07:58:34;;;;;;;5.95;3.85;;;17.80;99.90;;;;;;5025713;28;20052;-78
2022/06/10 08:00:59;;;;;;;4.53;3.53;;;18.00;99.90;;;;;;5015390;28;20030;-78
2022/06/10 08:03:26;;;;;;;7.35;3.95;;;18.30;99.90;;;;;;5005835;28;20044;-77
2022/06/10 08:05:52;;;;;;;7.45;4.00;;;18.20;99.90;;;;;;5020658;28;20065;-78
2022/06/10 08:08:20;;;;;;;5.95;3.72;;;18.40;99.90;;;;;;5001855;28;20033;-78
2022/06/10 08:10:46;;;;;;;5.15;3.40;;;18.40;99.90;;;;;;5003455;28;20026;-78
2022/06/10 08:13:13;;;;;;;8.27;4.32;;;18.40;99.90;;;;;;5013669;28;20040;-78
2022/06/10 08:15:39;;;;;;;5.47;3.67;;;18.40;99.90;;;;;;5005098;28;20157;-78
2022/06/10 08:18:06;;;;;;;7.32;3.90;;;18.40;99.90;;;;;;5012516;28;20025;-78
2022/06/10 08:23:21;;;;;;;5.43;3.55;;;18.90;99.90;;;;;;5023099;28;20132;-78
2022/06/10 08:25:47;;;;;;;5.95;3.00;;;18.80;99.90;;;;;;5008169;28;20018;-78
2022/06/10 08:28:13;;;;;;;8.57;3.20;;;19.00;99.90;;;;;;4993339;28;20026;-79
2022/06/10 08:30:39;;;;;;;5.32;3.03;;;18.70;99.90;;;;;;5002556;28;20116;-78
2022/06/10 08:33:04;;;;;;;4.95;2.85;;;18.40;99.90;;;;;;5005109;28;20041;-78
2022/06/10 08:35:31;;;;;;;6.60;3.35;;;18.40;99.90;;;;;;5026594;28;20396;-78
2022/06/10 08:37:58;;;;;;;5.15;3.55;;;18.90;99.90;;;;;;5016143;28;20109;-78
2022/06/10 08:40:50;;;;;;;4.47;3.25;;;19.30;99.90;;;;;;5023210;28;20494;-78
2022/06/10 08:43:53;;;;;;;5.28;3.22;;;19.00;99.90;;;;;;4994382;28;20037;-78
2022/06/10 08:47:03;;;;;;;5.30;2.50;;;19.20;99.90;;;;;;5001759;28;20499;-78
2022/06/10 08:50:03;;;;;;;4.47;2.40;;;19.10;99.90;;;;;;5003814;28;20615;-78
2022/06/10 08:52:43;;;;;;;4.40;2.80;;;19.50;99.90;;;;;;5009966;28;20025;-79
2022/06/10 08:55:31;;;;;;;6.45;3.15;;;19.00;99.90;;;;;;5024312;28;20018;-78
2022/06/10 08:58:02;;;;;;;4.72;3.35;;;18.60;99.90;;;;;;5019889;28;20033;-78
2022/06/10 09:00:40;;;;;;;6.45;3.75;;;19.00;99.90;;;;;;5022555;28;20452;-79
2022/06/10 09:03:16;;;;;;;6.57;3.35;;;19.30;99.90;;;;;;5015803;28;20022;-78
2022/06/10 09:05:54;;;;;;;5.45;3.22;;;19.50;99.90;;;;;;5019462;28;20022;-77
2022/06/10 09:08:27;;;;;;;4.05;3.38;;;19.70;99.90;;;;;;5020667;28;20029;-78
2022/06/10 09:11:22;;;;;;;3.90;3.10;;;19.80;99.90;;;;;;5015671;28;20022;-77
2022/06/10 09:14:19;;;;;;;5.47;2.65;;;19.80;99.90;;;;;;5027064;28;20119;-78
2022/06/10 09:17:24;;;;;;;6.13;3.17;;;20.00;99.90;;;;;;5002024;28;20669;-78
2022/06/10 09:20:11;;;;;;;3.63;2.40;;;19.50;99.90;;;;;;5000193;28;20037;-78
2022/06/10 09:22:57;;;;;;;4.32;2.92;;;19.90;99.90;;;;;;5011822;28;20087;-78
2022/06/10 09:25:45;;;;;;;4.35;2.97;;;20.10;99.90;;;;;;5004769;28;20021;-78
2022/06/10 09:28:11;;;;;;;5.18;2.78;;;19.90;99.90;;;;;;5024187;28;20034;-79
2022/06/10 09:30:54;;;;;;;5.38;3.17;;;20.40;99.90;;;;;;4993269;28;20026;-78
2022/06/10 09:33:34;;;;;;;7.72;3.28;;;20.30;99.90;;;;;;5016068;28;20485;-76
2022/06/10 09:36:31;;;;;;;6.30;2.90;;;20.20;99.90;;;;;;5014637;28;20034;-78
2022/06/10 09:39:06;;;;;;;4.70;2.58;;;20.60;99.90;;;;;;5018470;28;20033;-78
2022/06/10 09:41:58;;;;;;;4.53;2.30;;;20.00;99.90;;;;;;5003211;28;20037;-78
2022/06/10 09:44:40;;;;;;;7.97;2.40;;;19.70;99.90;;;;;;5008883;28;20026;-78
2022/06/10 09:47:34;;;;;;;4.07;2.45;;;20.50;99.90;;;;;;5023250;28;20026;-78
2022/06/10 09:50:18;;;;;;;3.70;1.80;;;21.10;99.90;;;;;;5004715;28;20021;-78
2022/06/10 09:53:04;;;;;;;3.17;2.15;;;21.10;99.90;;;;;;5021718;28;20056;-77
2022/06/10 09:55:49;;;;;;;2.40;1.75;;;21.60;99.90;;;;;;5023815;28;20036;-78
2022/06/10 09:58:26;;;;;;;3.75;1.67;;;21.40;99.90;;;;;;4993536;28;20025;-78
2022/06/10 10:01:29;;;;;;;3.85;2.05;;;21.50;99.90;;;;;;5021826;28;20080;-77
2022/06/10 10:04:32;;;;;;;3.30;1.90;;;21.70;99.90;;;;;;5023460;28;20084;-78
2022/06/10 10:07:10;;;;;;;3.72;2.20;;;21.50;99.90;;;;;;5007131;28;20072;-77
2022/06/10 10:09:55;;;;;;;3.67;1.90;;;21.20;99.90;;;;;;4986045;28;20668;-77
2022/06/10 10:12:45;;;;;;;4.03;2.13;;;21.50;99.90;;;;;;5028253;28;20042;-78
2022/06/10 10:15:37;;;;;;;3.67;2.05;;;21.90;99.90;;;;;;5015320;28;20026;-77
2022/06/10 10:18:32;;;;;;;3.80;2.20;;;21.80;99.90;;;;;;5015583;28;20042;-77
2022/06/10 10:21:08;;;;;;;3.95;2.00;;;21.80;99.90;;;;;;5021434;28;20097;-78
2022/06/10 10:23:50;;;;;;;3.47;2.30;;;21.40;99.90;;;;;;5023200;28;20070;-78
2022/06/10 10:26:23;;;;;;;4.38;2.10;;;21.60;99.90;;;;;;5013090;28;20026;-78
2022/06/10 10:28:59;;;;;;;2.78;2.00;;;21.50;99.90;;;;;;5023987;28;20431;-78
2022/06/10 10:31:29;;;;;;;2.90;2.00;;;21.30;99.90;;;;;;5005176;28;20029;-78
2022/06/10 10:33:55;;;;;;;2.95;2.08;;;21.00;99.90;;;;;;5019896;28;20022;-78
2022/06/10 10:36:32;;;;;;;4.57;2.10;;;21.30;99.90;;;;;;5022017;28;20052;-79
2022/06/10 10:39:11;;;;;;;3.95;1.90;;;21.30;99.90;;;;;;5019397;28;20030;-79
2022/06/10 10:41:44;;;;;;;3.65;1.77;;;21.20;99.90;;;;;;5022445;28;20089;-78
2022/06/10 10:44:41;;;;;;;3.75;1.88;;;21.90;99.90;;;;;;5016435;28;20025;-77
2022/06/10 10:47:09;;;;;;;3.20;1.80;;;22.00;99.90;;;;;;4981108;28;20050;-75
2022/06/10 10:49:40;;;;;;;2.72;1.73;;;22.30;99.90;;;;;;5022791;28;20055;-78
2022/06/10 10:52:17;;;;;;;4.13;1.90;;;22.50;99.90;;;;;;5016940;28;20057;-76
2022/06/10 10:54:45;;;;;;;4.70;2.08;;;22.60;99.90;;;;;;5010660;28;20030;-76
2022/06/10 10:57:21;;;;;;;2.08;1.70;;;23.40;99.90;;;;;;5016107;28;20030;-79
2022/06/10 10:59:55;;;;;;;2.47;1.70;;;23.70;99.90;;;;;;5022569;28;20033;-77
2022/06/10 11:02:34;;;;;;;6.28;1.77;;;23.80;99.90;;;;;;4994746;28;20018;-78
2022/06/10 11:05:15;;;;;;;1.98;1.70;;;23.30;99.90;;;;;;5012027;28;20018;-79
2022/06/10 11:07:42;;;;;;;2.88;2.00;;;23.00;99.90;;;;;;5013683;28;20101;-78
2022/06/10 11:10:22;;;;;;;2.58;1.67;;;22.80;99.90;;;;;;5017328;28;20030;-78
2022/06/10 11:12:48;;;;;;;2.17;1.70;;;23.20;99.90;;;;;;5012052;28;20030;-78
2022/06/10 11:15:27;;;;;;;2.03;1.73;;;23.50;99.90;;;;;;5006969;28;20076;-77
2022/06/10 11:17:53;;;;;;;2.33;1.73;;;23.70;99.90;;;;;;5038799;28;20026;-78
2022/06/10 11:20:27;;;;;;;3.42;1.88;;;23.30;99.90;;;;;;5024296;28;20384;-77
2022/06/10 11:23:18;;;;;;;3.50;1.70;;;23.40;99.90;;;;;;5035751;28;20499;-78
2022/06/10 11:25:46;;;;;;;2.15;1.60;;;23.40;99.90;;;;;;5025378;28;20049;-78
2022/06/10 11:28:22;;;;;;;1.90;1.60;;;23.70;99.90;;;;;;5043170;28;20286;-78
2022/06/10 11:30:49;;;;;;;2.97;1.80;;;23.70;99.90;;;;;;5042732;28;20026;-78
2022/06/10 11:33:32;;;;;;;3.05;1.80;;;23.80;99.90;;;;;;5025327;28;20026;-78
2022/06/10 11:36:08;;;;;;;3.10;1.65;;;23.70;99.90;;;;;;5043916;28;20056;-77
2022/06/10 11:38:37;;;;;;;3.42;1.40;;;24.00;99.90;;;;;;5044178;28;20447;-78
2022/06/10 11:41:27;;;;;;;2.78;1.70;;;25.00;99.90;;;;;;5043052;28;20037;-78
2022/06/10 11:44:21;;;;;;;3.38;1.40;;;23.50;99.90;;;;;;5043628;28;20026;-78
2022/06/10 11:46:54;;;;;;;2.33;1.80;;;22.80;99.90;;;;;;5039949;28;20033;-78
2022/06/10 11:49:30;;;;;;;4.25;1.48;;;22.40;99.90;;;;;;5025103;28;20033;-78
2022/06/10 11:52:03;;;;;;;4.75;1.80;;;22.20;99.90;;;;;;5023881;28;20483;-78
2022/06/10 11:55:17;;;;;;;2.35;1.60;;;22.00;99.90;;;;;;5042993;28;20317;-78
2022/06/10 12:00:52;;;;;;;3.15;1.50;;;23.70;99.90;;;;;;5043242;28;20040;-78
2022/06/10 12:03:38;;;;;;;2.30;1.40;;;24.50;99.90;;;;;;5043619;28;20018;-78
2022/06/10 12:06:13;;;;;;;2.47;1.73;;;24.20;99.90;;;;;;5042960;28;20025;-78
2022/06/10 12:08:55;;;;;;;3.38;1.42;;;23.30;99.90;;;;;;5025315;28;20072;-78
2022/06/10 12:11:39;;;;;;;3.70;1.65;;;22.60;99.90;;;;;;5018843;28;20093;-78
2022/06/10 12:14:19;;;;;;;3.40;1.70;;;22.50;99.90;;;;;;5020761;28;20026;-78
2022/06/10 12:16:58;;;;;;;3.35;1.50;;;23.10;99.90;;;;;;5035738;28;20030;-78
2022/06/10 12:19:31;;;;;;;3.78;1.63;;;24.20;99.90;;;;;;5025179;28;20039;-78
2022/06/10 12:21:57;;;;;;;3.35;2.05;;;24.50;99.90;;;;;;5033430;28;20118;-78
2022/06/10 12:24:23;;;;;;;2.67;1.30;;;24.60;99.90;;;;;;5025379;28;20053;-78
2022/06/10 12:26:59;;;;;;;4.63;1.67;;;23.80;99.90;;;;;;5042955;28;20064;-78
2022/06/10 12:29:25;;;;;;;;;;;23.10;99.90;;;;;;5025073;28;20033;-78
2022/06/10 12:32:29;;;;;;;3.47;1.38;;;22.90;99.90;;;;;;5041736;28;20333;-78
2022/06/10 12:35:08;;;;;;;2.33;1.50;;;22.80;99.90;;;;;;5043327;28;20028;-78
2022/06/10 12:38:09;;;;;;;3.38;1.48;;;23.60;99.90;;;;;;5033006;28;20028;-78
2022/06/10 12:41:07;;;;;;;2.67;1.88;;;23.10;99.90;;;;;;5020514;28;20033;-78
2022/06/10 12:43:36;;;;;;;1.38;1.27;;;23.00;99.90;;;;;;5026023;28;20609;-78
2022/06/10 12:46:07;;;;;;;9.63;2.10;;;24.00;99.90;;;;;;5025500;28;20112;-77
2022/06/10 12:48:46;;;;;;;2.25;1.30;;;23.20;99.90;;;;;;5024599;28;20124;-78
2022/06/10 12:51:12;;;;;;;3.33;1.30;;;23.10;99.90;;;;;;5023340;28;20028;-78
2022/06/10 12:53:56;;;;;;;1.90;1.25;;;23.20;99.90;;;;;;5042601;28;20034;-78
2022/06/10 12:56:33;;;;;;;2.42;1.27;;;23.20;99.90;;;;;;5042787;28;20045;-78
2022/06/10 12:59:08;;;;;;;2.00;1.48;;;23.20;99.90;;;;;;5042369;28;20029;-78
2022/06/10 13:01:33;;;;;;;4.18;1.42;;;23.10;99.90;;;;;;5024304;28;20017;-77
2022/06/10 13:04:04;;;;;;;3.50;1.70;;;23.10;99.90;;;;;;5042880;28;20021;-78
2022/06/10 13:06:46;;;;;;;3.22;1.40;;;23.50;99.90;;;;;;5033617;28;20483;-77
2022/06/10 13:09:12;;;;;;;2.60;1.42;;;23.50;99.90;;;;;;5032503;28;20030;-78
2022/06/10 13:12:20;;;;;;;1.92;1.20;;;23.40;99.90;;;;;;5014487;28;20484;-77
2022/06/10 13:15:11;;;;;;;4.10;1.65;;;23.30;99.90;;;;;;5022907;28;20431;-77
2022/06/10 13:17:55;;;;;;;1.40;1.30;;;23.70;99.90;;;;;;5032788;28;20441;-77
2022/06/10 13:20:22;;;;;;;2.15;1.10;;;25.20;99.90;;;;;;5032670;28;20017;-79
2022/06/10 13:23:13;;;;;;;3.20;1.45;;;26.10;98.50;;;;;;5025300;28;20021;-78
2022/06/10 13:25:40;;;;;;;3.22;1.50;;;26.70;99.10;;;;;;5033055;28;20096;-78
2022/06/10 13:28:35;;;;;;;3.13;1.48;;;26.60;98.70;;;;;;5032559;28;20022;-77
2022/06/10 13:31:05;;;;;;;3.83;1.83;;;27.90;97.30;;;;;;5028665;28;20045;-77
2022/06/10 13:33:31;;;;;;;3.75;1.23;;;27.30;97.10;;;;;;5033089;28;20036;-78
2022/06/10 13:35:57;;;;;;;2.45;1.27;;;25.40;96.40;;;;;;5032714;28;20028;-77
2022/06/10 13:38:35;;;;;;;3.00;1.42;;;24.10;97.40;;;;;;5032223;28;20044;-77
2022/06/10 13:43:51;;;;;;;3.10;1.30;;;25.80;97.40;;;;;;5021388;28;20033;-78
2022/06/10 13:46:29;;;;;;;3.08;1.40;;;26.50;97.10;;;;;;5032636;28;20112;-79